sensor_id;sensor_type;location;lat;lon;timestamp;P1;durP1;ratioP1;P2;durP2;ratioP2
20209;SDS011;10264;53.178;5.840;2022-09-12T00:00:49;16.43;;;13.57;;
20209;SDS011;10264;53.178;5.840;2022-09-12T00:03:16;16.83;;;15.13;;
20209;SDS011;10264;53.178;5.840;2022-09-12T00:05:43;17.90;;;14.43;;
20209;SDS011;10264;53.178;5.840;2022-09-12T00:08:11;15.67;;;13.47;;
20209;SDS011;10264;53.178;5.840;2022-09-12T00:10:40;19.70;;;15.53;;
20209;SDS011;10264;53.178;5.840;2022-09-12T00:13:09;15.47;;;14.07;;
20209;SDS011;10264;53.178;5.840;2022-09-12T00:15:39;18.70;;;15.13;;
20209;SDS011;10264;53.178;5.840;2022-09-12T00:18:08;16.30;;;14.43;;
20209;SDS011;10264;53.178;5.840;2022-09-12T00:20:46;18.33;;;14.37;;
20209;SDS011;10264;53.178;5.840;2022-09-12T00:23:13;20.97;;;14.07;;
20209;SDS011;10264;53.178;5.840;2022-09-12T00:25:40;19.50;;;14.87;;
20209;SDS011;10264;53.178;5.840;2022-09-12T00:28:08;16.10;;;14.50;;
20209;SDS011;10264;53.178;5.840;2022-09-12T00:30:38;16.93;;;13.23;;
20209;SDS011;10264;53.178;5.840;2022-09-12T00:33:09;14.80;;;13.30;;
20209;SDS011;10264;53.178;5.840;2022-09-12T00:35:40;15.97;;;14.33;;
20209;SDS011;10264;53.178;5.840;2022-09-12T00:38:07;16.30;;;14.80;;
20209;SDS011;10264;53.178;5.840;2022-09-12T00:40:34;19.00;;;15.43;;
20209;SDS011;10264;53.178;5.840;2022-09-12T00:43:00;19.23;;;15.13;;
20209;SDS011;10264;53.178;5.840;2022-09-12T00:45:27;18.30;;;15.60;;
20209;SDS011;10264;53.178;5.840;2022-09-12T00:47:55;17.03;;;15.27;;
20209;SDS011;10264;53.178;5.840;2022-09-12T00:50:24;18.93;;;15.70;;
20209;SDS011;10264;53.178;5.840;2022-09-12T00:53:03;19.20;;;17.30;;
20209;SDS011;10264;53.178;5.840;2022-09-12T00:55:36;18.93;;;16.97;;
20209;SDS011;10264;53.178;5.840;2022-09-12T00:58:12;19.13;;;17.17;;
20209;SDS011;10264;53.178;5.840;2022-09-12T01:00:44;21.27;;;16.50;;
20209;SDS011;10264;53.178;5.840;2022-09-12T01:03:11;17.83;;;16.20;;
20209;SDS011;10264;53.178;5.840;2022-09-12T01:06:04;19.07;;;16.90;;
20209;SDS011;10264;53.178;5.840;2022-09-12T01:08:31;19.03;;;16.57;;
20209;SDS011;10264;53.178;5.840;2022-09-12T01:10:59;20.80;;;18.77;;
20209;SDS011;10264;53.178;5.840;2022-09-12T01:13:27;20.07;;;17.93;;
20209;SDS011;10264;53.178;5.840;2022-09-12T01:15:53;20.23;;;18.13;;
20209;SDS011;10264;53.178;5.840;2022-09-12T01:21:40;21.97;;;18.33;;
20209;SDS011;10264;53.178;5.840;2022-09-12T01:46:55;23.13;;;19.93;;
20209;SDS011;10264;53.178;5.840;2022-09-12T01:49:29;21.53;;;19.43;;
20209;SDS011;10264;53.178;5.840;2022-09-12T01:52:13;21.43;;;19.23;;
20209;SDS011;10264;53.178;5.840;2022-09-12T01:54:50;21.67;;;19.23;;
20209;SDS011;10264;53.178;5.840;2022-09-12T02:00:20;20.97;;;18.70;;
20209;SDS011;10264;53.178;5.840;2022-09-12T02:05:38;20.30;;;17.37;;
20209;SDS011;10264;53.178;5.840;2022-09-12T02:08:09;19.33;;;17.33;;
20209;SDS011;10264;53.178;5.840;2022-09-12T02:10:43;20.70;;;18.47;;
20209;SDS011;10264;53.178;5.840;2022-09-12T02:16:15;19.00;;;17.10;;
20209;SDS011;10264;53.178;5.840;2022-09-12T02:18:46;18.13;;;16.33;;
20209;SDS011;10264;53.178;5.840;2022-09-12T02:21:18;19.67;;;16.97;;
20209;SDS011;10264;53.178;5.840;2022-09-12T02:23:48;21.17;;;18.90;;
20209;SDS011;10264;53.178;5.840;2022-09-12T02:26:28;19.70;;;17.70;;
20209;SDS011;10264;53.178;5.840;2022-09-12T02:28:57;18.93;;;16.93;;
20209;SDS011;10264;53.178;5.840;2022-09-12T02:39:36;17.77;;;16.07;;
20209;SDS011;10264;53.178;5.840;2022-09-12T02:42:05;18.00;;;16.20;;
20209;SDS011;10264;53.178;5.840;2022-09-12T02:44:31;17.67;;;16.00;;
20209;SDS011;10264;53.178;5.840;2022-09-12T02:50:08;18.23;;;16.50;;
20209;SDS011;10264;53.178;5.840;2022-09-12T02:52:38;17.60;;;15.90;;
20209;SDS011;10264;53.178;5.840;2022-09-12T02:55:05;17.20;;;15.43;;
20209;SDS011;10264;53.178;5.840;2022-09-12T02:57:33;17.80;;;16.07;;
20209;SDS011;10264;53.178;5.840;2022-09-12T03:00:00;22.50;;;16.53;;
20209;SDS011;10264;53.178;5.840;2022-09-12T03:02:29;18.23;;;16.43;;
20209;SDS011;10264;53.178;5.840;2022-09-12T03:07:55;20.30;;;16.30;;
20209;SDS011;10264;53.178;5.840;2022-09-12T03:10:40;18.03;;;16.23;;
20209;SDS011;10264;53.178;5.840;2022-09-12T03:13:25;16.90;;;15.00;;
20209;SDS011;10264;53.178;5.840;2022-09-12T03:21:17;17.67;;;15.70;;
20209;SDS011;10264;53.178;5.840;2022-09-12T03:24:04;18.47;;;16.57;;
20209;SDS011;10264;53.178;5.840;2022-09-12T03:26:41;19.70;;;16.93;;
20209;SDS011;10264;53.178;5.840;2022-09-12T03:29:15;19.90;;;17.80;;
20209;SDS011;10264;53.178;5.840;2022-09-12T03:31:48;21.23;;;19.03;;
20209;SDS011;10264;53.178;5.840;2022-09-12T03:34:16;25.77;;;20.80;;
20209;SDS011;10264;53.178;5.840;2022-09-12T03:36:43;24.43;;;20.83;;
20209;SDS011;10264;53.178;5.840;2022-09-12T03:39:09;24.90;;;21.53;;
20209;SDS011;10264;53.178;5.840;2022-09-12T03:41:36;25.63;;;21.57;;
20209;SDS011;10264;53.178;5.840;2022-09-12T03:44:04;29.03;;;21.97;;
20209;SDS011;10264;53.178;5.840;2022-09-12T03:46:31;27.17;;;23.33;;
20209;SDS011;10264;53.178;5.840;2022-09-12T03:48:57;27.53;;;22.83;;
20209;SDS011;10264;53.178;5.840;2022-09-12T03:51:24;27.63;;;23.43;;
20209;SDS011;10264;53.178;5.840;2022-09-12T03:53:55;29.63;;;23.30;;
20209;SDS011;10264;53.178;5.840;2022-09-12T03:56:22;31.67;;;25.03;;
20209;SDS011;10264;53.178;5.840;2022-09-12T03:58:48;31.43;;;25.13;;
20209;SDS011;10264;53.178;5.840;2022-09-12T04:01:17;30.03;;;25.27;;
20209;SDS011;10264;53.178;5.840;2022-09-12T04:03:46;35.77;;;25.90;;
20209;SDS011;10264;53.178;5.840;2022-09-12T04:06:15;43.03;;;27.83;;
20209;SDS011;10264;53.178;5.840;2022-09-12T04:08:50;36.33;;;27.57;;
20209;SDS011;10264;53.178;5.840;2022-09-12T04:11:18;33.40;;;27.80;;
20209;SDS011;10264;53.178;5.840;2022-09-12T04:13:46;35.50;;;27.13;;
20209;SDS011;10264;53.178;5.840;2022-09-12T04:16:14;37.60;;;27.60;;
20209;SDS011;10264;53.178;5.840;2022-09-12T04:18:41;36.07;;;27.07;;
20209;SDS011;10264;53.178;5.840;2022-09-12T04:21:12;35.50;;;27.20;;
20209;SDS011;10264;53.178;5.840;2022-09-12T04:23:41;35.23;;;26.27;;
20209;SDS011;10264;53.178;5.840;2022-09-12T04:26:08;37.90;;;26.43;;
20209;SDS011;10264;53.178;5.840;2022-09-12T04:28:35;34.13;;;26.63;;
20209;SDS011;10264;53.178;5.840;2022-09-12T04:31:05;36.70;;;26.63;;
20209;SDS011;10264;53.178;5.840;2022-09-12T04:33:37;38.90;;;27.73;;
20209;SDS011;10264;53.178;5.840;2022-09-12T04:36:05;35.63;;;28.23;;
20209;SDS011;10264;53.178;5.840;2022-09-12T04:38:50;34.07;;;28.13;;
20209;SDS011;10264;53.178;5.840;2022-09-12T04:43:50;39.70;;;28.00;;
20209;SDS011;10264;53.178;5.840;2022-09-12T04:46:18;43.67;;;29.73;;
20209;SDS011;10264;53.178;5.840;2022-09-12T04:48:45;35.77;;;26.93;;
20209;SDS011;10264;53.178;5.840;2022-09-12T04:51:19;35.77;;;28.13;;
20209;SDS011;10264;53.178;5.840;2022-09-12T04:53:48;39.00;;;28.73;;
20209;SDS011;10264;53.178;5.840;2022-09-12T04:56:17;36.43;;;27.80;;
20209;SDS011;10264;53.178;5.840;2022-09-12T04:58:47;35.83;;;27.73;;
20209;SDS011;10264;53.178;5.840;2022-09-12T05:01:15;42.87;;;30.63;;
20209;SDS011;10264;53.178;5.840;2022-09-12T05:03:44;36.00;;;28.20;;
20209;SDS011;10264;53.178;5.840;2022-09-12T05:06:13;37.43;;;29.00;;
20209;SDS011;10264;53.178;5.840;2022-09-12T05:08:41;36.17;;;28.67;;
20209;SDS011;10264;53.178;5.840;2022-09-12T05:11:27;37.83;;;29.80;;
20209;SDS011;10264;53.178;5.840;2022-09-12T05:14:16;41.17;;;29.67;;
20209;SDS011;10264;53.178;5.840;2022-09-12T05:16:45;39.50;;;29.23;;
20209;SDS011;10264;53.178;5.840;2022-09-12T05:19:14;38.10;;;29.43;;
20209;SDS011;10264;53.178;5.840;2022-09-12T05:21:44;37.77;;;29.73;;
20209;SDS011;10264;53.178;5.840;2022-09-12T05:24:12;37.30;;;29.27;;
20209;SDS011;10264;53.178;5.840;2022-09-12T05:26:39;36.77;;;27.77;;
20209;SDS011;10264;53.178;5.840;2022-09-12T05:29:05;36.97;;;28.33;;
20209;SDS011;10264;53.178;5.840;2022-09-12T05:31:32;38.20;;;29.80;;
20209;SDS011;10264;53.178;5.840;2022-09-12T05:33:59;39.40;;;29.23;;
20209;SDS011;10264;53.178;5.840;2022-09-12T05:36:27;40.80;;;30.07;;
20209;SDS011;10264;53.178;5.840;2022-09-12T05:39:00;42.10;;;29.77;;
20209;SDS011;10264;53.178;5.840;2022-09-12T05:41:28;38.13;;;29.17;;
20209;SDS011;10264;53.178;5.840;2022-09-12T05:43:56;38.27;;;30.47;;
20209;SDS011;10264;53.178;5.840;2022-09-12T05:46:25;41.00;;;30.50;;
20209;SDS011;10264;53.178;5.840;2022-09-12T05:48:53;39.40;;;30.13;;
20209;SDS011;10264;53.178;5.840;2022-09-12T05:51:25;36.67;;;29.27;;
20209;SDS011;10264;53.178;5.840;2022-09-12T05:53:57;33.27;;;27.10;;
20209;SDS011;10264;53.178;5.840;2022-09-12T05:56:26;35.20;;;28.33;;
20209;SDS011;10264;53.178;5.840;2022-09-12T06:01:21;34.37;;;27.30;;
20209;SDS011;10264;53.178;5.840;2022-09-12T06:03:49;34.37;;;26.63;;
20209;SDS011;10264;53.178;5.840;2022-09-12T06:06:18;34.53;;;28.30;;
20209;SDS011;10264;53.178;5.840;2022-09-12T06:08:47;34.53;;;27.07;;
20209;SDS011;10264;53.178;5.840;2022-09-12T06:11:17;34.77;;;26.67;;
20209;SDS011;10264;53.178;5.840;2022-09-12T06:13:46;31.30;;;26.93;;
20209;SDS011;10264;53.178;5.840;2022-09-12T06:16:16;31.63;;;26.23;;
20209;SDS011;10264;53.178;5.840;2022-09-12T06:18:48;32.43;;;26.73;;
20209;SDS011;10264;53.178;5.840;2022-09-12T06:21:15;30.47;;;25.60;;
20209;SDS011;10264;53.178;5.840;2022-09-12T06:23:42;31.97;;;25.77;;
20209;SDS011;10264;53.178;5.840;2022-09-12T06:26:11;34.37;;;26.40;;
20209;SDS011;10264;53.178;5.840;2022-09-12T06:28:38;31.90;;;25.67;;
20209;SDS011;10264;53.178;5.840;2022-09-12T06:31:08;31.43;;;25.47;;
20209;SDS011;10264;53.178;5.840;2022-09-12T06:33:37;32.87;;;25.93;;
20209;SDS011;10264;53.178;5.840;2022-09-12T06:36:06;28.70;;;24.67;;
20209;SDS011;10264;53.178;5.840;2022-09-12T06:38:38;29.93;;;25.67;;
20209;SDS011;10264;53.178;5.840;2022-09-12T06:41:06;31.00;;;24.23;;
20209;SDS011;10264;53.178;5.840;2022-09-12T06:43:34;31.73;;;25.33;;
20209;SDS011;10264;53.178;5.840;2022-09-12T06:46:01;30.73;;;24.93;;
20209;SDS011;10264;53.178;5.840;2022-09-12T06:48:28;32.57;;;25.37;;
20209;SDS011;10264;53.178;5.840;2022-09-12T06:50:55;32.13;;;24.07;;
20209;SDS011;10264;53.178;5.840;2022-09-12T06:53:21;28.77;;;24.33;;
20209;SDS011;10264;53.178;5.840;2022-09-12T06:55:58;28.67;;;25.10;;
20209;SDS011;10264;53.178;5.840;2022-09-12T06:58:26;30.13;;;24.00;;
20209;SDS011;10264;53.178;5.840;2022-09-12T07:01:04;27.30;;;24.23;;
20209;SDS011;10264;53.178;5.840;2022-09-12T07:03:35;32.00;;;25.40;;
20209;SDS011;10264;53.178;5.840;2022-09-12T07:06:07;29.80;;;24.57;;
20209;SDS011;10264;53.178;5.840;2022-09-12T07:08:35;30.43;;;24.70;;
20209;SDS011;10264;53.178;5.840;2022-09-12T07:13:46;30.83;;;26.40;;
20209;SDS011;10264;53.178;5.840;2022-09-12T07:16:15;32.20;;;26.50;;
20209;SDS011;10264;53.178;5.840;2022-09-12T07:18:48;30.77;;;26.23;;
20209;SDS011;10264;53.178;5.840;2022-09-12T07:21:16;29.87;;;25.40;;
20209;SDS011;10264;53.178;5.840;2022-09-12T07:23:42;33.17;;;27.47;;
20209;SDS011;10264;53.178;5.840;2022-09-12T07:26:10;35.50;;;27.70;;
20209;SDS011;10264;53.178;5.840;2022-09-12T07:28:38;38.37;;;28.77;;
20209;SDS011;10264;53.178;5.840;2022-09-12T07:33:35;35.20;;;28.77;;
20209;SDS011;10264;53.178;5.840;2022-09-12T07:36:04;35.30;;;29.93;;
20209;SDS011;10264;53.178;5.840;2022-09-12T07:38:32;36.13;;;28.93;;
20209;SDS011;10264;53.178;5.840;2022-09-12T07:40:59;40.40;;;30.80;;
20209;SDS011;10264;53.178;5.840;2022-09-12T07:43:26;37.30;;;29.80;;
20209;SDS011;10264;53.178;5.840;2022-09-12T07:45:55;34.67;;;28.60;;
20209;SDS011;10264;53.178;5.840;2022-09-12T07:48:22;34.03;;;28.63;;
20209;SDS011;10264;53.178;5.840;2022-09-12T07:51:02;34.33;;;27.97;;
20209;SDS011;10264;53.178;5.840;2022-09-12T07:53:31;36.80;;;28.97;;
20209;SDS011;10264;53.178;5.840;2022-09-12T07:56:00;36.73;;;29.17;;
20209;SDS011;10264;53.178;5.840;2022-09-12T07:58:27;38.23;;;30.07;;
20209;SDS011;10264;53.178;5.840;2022-09-12T08:01:00;40.37;;;30.40;;
20209;SDS011;10264;53.178;5.840;2022-09-12T08:03:36;38.80;;;30.03;;
20209;SDS011;10264;53.178;5.840;2022-09-12T08:06:04;34.90;;;28.10;;
20209;SDS011;10264;53.178;5.840;2022-09-12T08:08:38;39.47;;;31.10;;
20209;SDS011;10264;53.178;5.840;2022-09-12T08:11:06;36.70;;;30.57;;
20209;SDS011;10264;53.178;5.840;2022-09-12T08:13:35;35.27;;;30.83;;
20209;SDS011;10264;53.178;5.840;2022-09-12T08:16:06;39.17;;;29.53;;
20209;SDS011;10264;53.178;5.840;2022-09-12T08:18:36;34.97;;;29.37;;
20209;SDS011;10264;53.178;5.840;2022-09-12T08:21:04;38.60;;;29.63;;
20209;SDS011;10264;53.178;5.840;2022-09-12T08:23:31;35.97;;;29.23;;
20209;SDS011;10264;53.178;5.840;2022-09-12T08:25:59;35.10;;;29.40;;
20209;SDS011;10264;53.178;5.840;2022-09-12T08:28:32;37.77;;;28.87;;
20209;SDS011;10264;53.178;5.840;2022-09-12T08:31:01;36.87;;;29.33;;
20209;SDS011;10264;53.178;5.840;2022-09-12T08:33:29;39.83;;;30.97;;
20209;SDS011;10264;53.178;5.840;2022-09-12T08:36:00;39.90;;;32.40;;
20209;SDS011;10264;53.178;5.840;2022-09-12T08:38:28;40.13;;;32.53;;
20209;SDS011;10264;53.178;5.840;2022-09-12T08:46:23;46.63;;;36.37;;
20209;SDS011;10264;53.178;5.840;2022-09-12T08:48:57;44.67;;;35.97;;
20209;SDS011;10264;53.178;5.840;2022-09-12T08:51:27;46.03;;;37.07;;
20209;SDS011;10264;53.178;5.840;2022-09-12T08:53:58;47.50;;;37.90;;
20209;SDS011;10264;53.178;5.840;2022-09-12T08:56:28;45.43;;;37.07;;
20209;SDS011;10264;53.178;5.840;2022-09-12T08:58:59;48.23;;;37.73;;
20209;SDS011;10264;53.178;5.840;2022-09-12T09:09:43;41.93;;;35.10;;
20209;SDS011;10264;53.178;5.840;2022-09-12T09:15:12;39.60;;;32.30;;
20209;SDS011;10264;53.178;5.840;2022-09-12T09:18:04;37.83;;;32.47;;
20209;SDS011;10264;53.178;5.840;2022-09-12T09:20:40;38.60;;;31.77;;
20209;SDS011;10264;53.178;5.840;2022-09-12T09:23:24;39.40;;;32.40;;
20209;SDS011;10264;53.178;5.840;2022-09-12T09:26:09;37.00;;;29.30;;
20209;SDS011;10264;53.178;5.840;2022-09-12T09:31:13;33.43;;;27.90;;
20209;SDS011;10264;53.178;5.840;2022-09-12T09:33:41;30.97;;;25.67;;
20209;SDS011;10264;53.178;5.840;2022-09-12T09:38:47;27.93;;;24.97;;
20209;SDS011;10264;53.178;5.840;2022-09-12T09:43:58;25.67;;;22.40;;
20209;SDS011;10264;53.178;5.840;2022-09-12T09:46:26;22.97;;;20.57;;
20209;SDS011;10264;53.178;5.840;2022-09-12T09:48:53;22.47;;;20.00;;
20209;SDS011;10264;53.178;5.840;2022-09-12T09:51:25;22.10;;;19.57;;
20209;SDS011;10264;53.178;5.840;2022-09-12T09:53:54;19.57;;;17.47;;
20209;SDS011;10264;53.178;5.840;2022-09-12T09:56:32;15.27;;;13.67;;
20209;SDS011;10264;53.178;5.840;2022-09-12T10:01:57;19.33;;;14.50;;
20209;SDS011;10264;53.178;5.840;2022-09-12T10:04:30;17.47;;;15.57;;
20209;SDS011;10264;53.178;5.840;2022-09-12T10:07:15;16.87;;;15.10;;
20209;SDS011;10264;53.178;5.840;2022-09-12T10:10:02;18.80;;;16.83;;
20209;SDS011;10264;53.178;5.840;2022-09-12T10:12:32;20.30;;;18.30;;
20209;SDS011;10264;53.178;5.840;2022-09-12T10:14:59;19.63;;;17.48;;
20209;SDS011;10264;53.178;5.840;2022-09-12T10:17:28;19.27;;;17.20;;
20209;SDS011;10264;53.178;5.840;2022-09-12T10:19:59;19.02;;;16.92;;
20209;SDS011;10264;53.178;5.840;2022-09-12T10:22:46;19.13;;;17.02;;
20209;SDS011;10264;53.178;5.840;2022-09-12T10:25:14;16.73;;;14.98;;
20209;SDS011;10264;53.178;5.840;2022-09-12T10:27:43;19.65;;;17.58;;
20209;SDS011;10264;53.178;5.840;2022-09-12T10:30:16;19.10;;;17.10;;
20209;SDS011;10264;53.178;5.840;2022-09-12T10:32:45;18.30;;;15.48;;
20209;SDS011;10264;53.178;5.840;2022-09-12T10:35:16;18.40;;;16.50;;
20209;SDS011;10264;53.178;5.840;2022-09-12T10:37:50;18.98;;;17.08;;
20209;SDS011;10264;53.178;5.840;2022-09-12T10:40:26;17.35;;;15.50;;
20209;SDS011;10264;53.178;5.840;2022-09-12T10:42:56;15.63;;;14.02;;
20209;SDS011;10264;53.178;5.840;2022-09-12T10:47:52;19.17;;;15.63;;
20209;SDS011;10264;53.178;5.840;2022-09-12T10:50:25;15.07;;;13.45;;
20209;SDS011;10264;53.178;5.840;2022-09-12T10:53:39;15.63;;;14.00;;
20209;SDS011;10264;53.178;5.840;2022-09-12T10:56:09;16.27;;;13.52;;
20209;SDS011;10264;53.178;5.840;2022-09-12T11:07:23;15.40;;;11.37;;
20209;SDS011;10264;53.178;5.840;2022-09-12T11:18:46;10.57;;;9.40;;
20209;SDS011;10264;53.178;5.840;2022-09-12T11:26:18;9.87;;;8.77;;
20209;SDS011;10264;53.178;5.840;2022-09-12T11:38:05;9.70;;;8.70;;
20209;SDS011;10264;53.178;5.840;2022-09-12T11:40:52;8.33;;;7.50;;
20209;SDS011;10264;53.178;5.840;2022-09-12T11:45:55;10.93;;;8.20;;
20209;SDS011;10264;53.178;5.840;2022-09-12T11:57:14;10.20;;;8.10;;
20209;SDS011;10264;53.178;5.840;2022-09-12T11:59:46;8.93;;;8.03;;
20209;SDS011;10264;53.178;5.840;2022-09-12T12:07:21;7.47;;;6.77;;
20209;SDS011;10264;53.178;5.840;2022-09-12T12:09:48;6.70;;;6.00;;
20209;SDS011;10264;53.178;5.840;2022-09-12T12:12:18;8.07;;;7.17;;
20209;SDS011;10264;53.178;5.840;2022-09-12T12:14:50;8.40;;;7.60;;
20209;SDS011;10264;53.178;5.840;2022-09-12T12:17:20;8.93;;;7.87;;
20209;SDS011;10264;53.178;5.840;2022-09-12T12:19:56;9.63;;;8.50;;
20209;SDS011;10264;53.178;5.840;2022-09-12T12:22:31;8.80;;;7.90;;
20209;SDS011;10264;53.178;5.840;2022-09-12T12:38:02;11.27;;;9.80;;
20209;SDS011;10264;53.178;5.840;2022-09-12T12:40:31;11.97;;;9.80;;
20209;SDS011;10264;53.178;5.840;2022-09-12T12:42:59;12.87;;;10.30;;
20209;SDS011;10264;53.178;5.840;2022-09-12T12:47:58;9.17;;;8.27;;
20209;SDS011;10264;53.178;5.840;2022-09-12T12:50:32;10.27;;;8.63;;
20209;SDS011;10264;53.178;5.840;2022-09-12T12:53:03;8.83;;;7.33;;
20209;SDS011;10264;53.178;5.840;2022-09-12T12:55:51;7.83;;;7.03;;
20209;SDS011;10264;53.178;5.840;2022-09-12T12:58:26;7.87;;;6.93;;
20209;SDS011;10264;53.178;5.840;2022-09-12T13:03:42;8.70;;;7.57;;
20209;SDS011;10264;53.178;5.840;2022-09-12T13:06:34;9.43;;;7.30;;
20209;SDS011;10264;53.178;5.840;2022-09-12T13:09:03;8.13;;;6.67;;
20209;SDS011;10264;53.178;5.840;2022-09-12T13:11:44;8.23;;;7.43;;
20209;SDS011;10264;53.178;5.840;2022-09-12T13:17:01;10.37;;;8.20;;
20209;SDS011;10264;53.178;5.840;2022-09-12T13:19:31;9.30;;;8.37;;
20209;SDS011;10264;53.178;5.840;2022-09-12T13:22:05;8.20;;;7.40;;
20209;SDS011;10264;53.178;5.840;2022-09-12T13:24:33;8.60;;;7.50;;
20209;SDS011;10264;53.178;5.840;2022-09-12T13:27:18;7.50;;;6.80;;
20209;SDS011;10264;53.178;5.840;2022-09-12T13:29:47;8.80;;;8.00;;
20209;SDS011;10264;53.178;5.840;2022-09-12T13:32:14;9.47;;;8.03;;
20209;SDS011;10264;53.178;5.840;2022-09-12T13:34:49;9.93;;;8.27;;
20209;SDS011;10264;53.178;5.840;2022-09-12T13:37:47;9.70;;;8.37;;
20209;SDS011;10264;53.178;5.840;2022-09-12T13:43:14;10.50;;;8.70;;
20209;SDS011;10264;53.178;5.840;2022-09-12T13:45:46;9.67;;;8.77;;
20209;SDS011;10264;53.178;5.840;2022-09-12T13:48:17;11.13;;;10.03;;
20209;SDS011;10264;53.178;5.840;2022-09-12T13:50:49;12.40;;;11.10;;
20209;SDS011;10264;53.178;5.840;2022-09-12T13:53:19;12.53;;;11.17;;
20209;SDS011;10264;53.178;5.840;2022-09-12T13:55:50;12.07;;;10.00;;
20209;SDS011;10264;53.178;5.840;2022-09-12T14:03:31;14.60;;;11.80;;
20209;SDS011;10264;53.178;5.840;2022-09-12T14:06:03;12.53;;;11.23;;
20209;SDS011;10264;53.178;5.840;2022-09-12T14:08:30;14.10;;;11.83;;
20209;SDS011;10264;53.178;5.840;2022-09-12T14:10:56;13.60;;;12.30;;
20209;SDS011;10264;53.178;5.840;2022-09-12T14:13:24;14.67;;;12.93;;
20209;SDS011;10264;53.178;5.840;2022-09-12T14:15:52;14.03;;;12.13;;
20209;SDS011;10264;53.178;5.840;2022-09-12T14:18:22;18.07;;;12.23;;
20209;SDS011;10264;53.178;5.840;2022-09-12T14:20:51;13.20;;;11.20;;
20209;SDS011;10264;53.178;5.840;2022-09-12T14:26:02;12.83;;;11.47;;
20209;SDS011;10264;53.178;5.840;2022-09-12T14:28:30;13.03;;;11.80;;
20209;SDS011;10264;53.178;5.840;2022-09-12T14:33:30;13.90;;;11.63;;
20209;SDS011;10264;53.178;5.840;2022-09-12T14:38:51;14.83;;;11.70;;
20209;SDS011;10264;53.178;5.840;2022-09-12T14:41:22;11.93;;;10.40;;
20209;SDS011;10264;53.178;5.840;2022-09-12T14:43:53;11.33;;;10.07;;
20209;SDS011;10264;53.178;5.840;2022-09-12T14:48:59;11.37;;;9.93;;
20209;SDS011;10264;53.178;5.840;2022-09-12T14:51:27;10.93;;;9.83;;
20209;SDS011;10264;53.178;5.840;2022-09-12T14:53:58;11.63;;;10.40;;
20209;SDS011;10264;53.178;5.840;2022-09-12T14:56:41;11.40;;;10.20;;
20209;SDS011;10264;53.178;5.840;2022-09-12T15:04:40;10.73;;;9.63;;
20209;SDS011;10264;53.178;5.840;2022-09-12T15:07:14;12.47;;;10.23;;
20209;SDS011;10264;53.178;5.840;2022-09-12T15:09:46;12.97;;;9.20;;
20209;SDS011;10264;53.178;5.840;2022-09-12T15:12:13;11.47;;;10.30;;
20209;SDS011;10264;53.178;5.840;2022-09-12T15:14:39;11.50;;;10.30;;
20209;SDS011;10264;53.178;5.840;2022-09-12T15:17:05;12.47;;;11.17;;
20209;SDS011;10264;53.178;5.840;2022-09-12T15:19:32;12.20;;;10.90;;
20209;SDS011;10264;53.178;5.840;2022-09-12T15:21:58;11.57;;;10.47;;
20209;SDS011;10264;53.178;5.840;2022-09-12T15:24:25;11.80;;;10.60;;
20209;SDS011;10264;53.178;5.840;2022-09-12T15:26:51;11.90;;;10.70;;
20209;SDS011;10264;53.178;5.840;2022-09-12T15:29:18;12.10;;;10.50;;
20209;SDS011;10264;53.178;5.840;2022-09-12T15:31:45;12.60;;;10.07;;
20209;SDS011;10264;53.178;5.840;2022-09-12T15:34:15;11.47;;;9.77;;
20209;SDS011;10264;53.178;5.840;2022-09-12T15:36:41;12.40;;;10.37;;
20209;SDS011;10264;53.178;5.840;2022-09-12T15:39:08;11.07;;;9.80;;
20209;SDS011;10264;53.178;5.840;2022-09-12T15:41:35;12.63;;;9.80;;
20209;SDS011;10264;53.178;5.840;2022-09-12T15:44:04;12.67;;;9.60;;
20209;SDS011;10264;53.178;5.840;2022-09-12T15:46:31;10.80;;;8.93;;
20209;SDS011;10264;53.178;5.840;2022-09-12T15:48:58;10.40;;;9.33;;
20209;SDS011;10264;53.178;5.840;2022-09-12T15:51:24;12.40;;;11.20;;
20209;SDS011;10264;53.178;5.840;2022-09-12T15:53:51;12.57;;;10.57;;
20209;SDS011;10264;53.178;5.840;2022-09-12T15:56:18;11.90;;;10.40;;
20209;SDS011;10264;53.178;5.840;2022-09-12T15:58:46;10.97;;;9.93;;
20209;SDS011;10264;53.178;5.840;2022-09-12T16:01:24;12.23;;;11.03;;
20209;SDS011;10264;53.178;5.840;2022-09-12T16:03:52;11.73;;;10.33;;
20209;SDS011;10264;53.178;5.840;2022-09-12T16:06:18;11.17;;;10.07;;
20209;SDS011;10264;53.178;5.840;2022-09-12T16:08:45;11.93;;;10.80;;
20209;SDS011;10264;53.178;5.840;2022-09-12T16:13:50;11.50;;;10.40;;
20209;SDS011;10264;53.178;5.840;2022-09-12T16:16:17;11.47;;;10.23;;
20209;SDS011;10264;53.178;5.840;2022-09-12T16:18:43;12.07;;;10.90;;
20209;SDS011;10264;53.178;5.840;2022-09-12T16:21:10;11.47;;;10.23;;
20209;SDS011;10264;53.178;5.840;2022-09-12T16:23:41;12.47;;;11.03;;
20209;SDS011;10264;53.178;5.840;2022-09-12T16:26:08;13.27;;;10.30;;
20209;SDS011;10264;53.178;5.840;2022-09-12T16:28:35;12.37;;;10.03;;
20209;SDS011;10264;53.178;5.840;2022-09-12T16:31:02;11.63;;;10.43;;
20209;SDS011;10264;53.178;5.840;2022-09-12T16:33:30;12.33;;;10.50;;
20209;SDS011;10264;53.178;5.840;2022-09-12T16:36:11;10.03;;;9.13;;
20209;SDS011;10264;53.178;5.840;2022-09-12T16:38:42;11.57;;;8.87;;
20209;SDS011;10264;53.178;5.840;2022-09-12T16:41:10;10.07;;;8.90;;
20209;SDS011;10264;53.178;5.840;2022-09-12T16:43:37;9.17;;;8.27;;
20209;SDS011;10264;53.178;5.840;2022-09-12T16:48:35;10.27;;;7.77;;
20209;SDS011;10264;53.178;5.840;2022-09-12T16:51:03;9.37;;;8.40;;
20209;SDS011;10264;53.178;5.840;2022-09-12T16:53:31;9.63;;;8.73;;
20209;SDS011;10264;53.178;5.840;2022-09-12T16:55:59;10.50;;;9.37;;
20209;SDS011;10264;53.178;5.840;2022-09-12T16:58:26;11.20;;;9.70;;
20209;SDS011;10264;53.178;5.840;2022-09-12T17:01:03;13.23;;;10.67;;
20209;SDS011;10264;53.178;5.840;2022-09-12T17:03:31;12.13;;;10.50;;
20209;SDS011;10264;53.178;5.840;2022-09-12T17:06:02;14.07;;;10.40;;
20209;SDS011;10264;53.178;5.840;2022-09-12T17:08:31;10.77;;;9.67;;
20209;SDS011;10264;53.178;5.840;2022-09-12T17:11:03;10.97;;;8.97;;
20209;SDS011;10264;53.178;5.840;2022-09-12T17:13:31;11.53;;;10.30;;
20209;SDS011;10264;53.178;5.840;2022-09-12T17:16:18;12.13;;;10.73;;
20209;SDS011;10264;53.178;5.840;2022-09-12T17:18:45;11.00;;;9.83;;
20209;SDS011;10264;53.178;5.840;2022-09-12T17:21:11;14.53;;;10.93;;
20209;SDS011;10264;53.178;5.840;2022-09-12T17:23:38;10.87;;;9.77;;
20209;SDS011;10264;53.178;5.840;2022-09-12T17:26:05;10.57;;;9.47;;
20209;SDS011;10264;53.178;5.840;2022-09-12T17:28:33;11.60;;;10.40;;
20209;SDS011;10264;53.178;5.840;2022-09-12T17:31:01;11.30;;;9.40;;
20209;SDS011;10264;53.178;5.840;2022-09-12T17:33:29;10.23;;;8.67;;
20209;SDS011;10264;53.178;5.840;2022-09-12T17:36:03;10.67;;;9.57;;
20209;SDS011;10264;53.178;5.840;2022-09-12T17:38:31;11.80;;;10.23;;
20209;SDS011;10264;53.178;5.840;2022-09-12T17:43:33;11.07;;;9.97;;
20209;SDS011;10264;53.178;5.840;2022-09-12T17:46:01;11.53;;;10.33;;
20209;SDS011;10264;53.178;5.840;2022-09-12T17:48:27;11.57;;;10.43;;
20209;SDS011;10264;53.178;5.840;2022-09-12T17:50:53;11.87;;;10.67;;
20209;SDS011;10264;53.178;5.840;2022-09-12T17:53:20;11.40;;;10.20;;
20209;SDS011;10264;53.178;5.840;2022-09-12T17:55:46;10.90;;;9.53;;
20209;SDS011;10264;53.178;5.840;2022-09-12T17:58:18;13.23;;;10.33;;
20209;SDS011;10264;53.178;5.840;2022-09-12T18:00:45;10.37;;;9.30;;